createdAt,value
2023-07-22T00:00:33.640Z,2.30
2023-07-22T00:03:03.646Z,3.53
2023-07-22T00:05:33.589Z,2.30
2023-07-22T00:08:06.252Z,3.45
2023-07-22T00:10:36.079Z,3.45
2023-07-22T00:13:05.968Z,3.30
2023-07-22T00:15:36.252Z,1.98
2023-07-22T00:18:06.316Z,3.10
2023-07-22T00:20:36.166Z,1.58
2023-07-22T00:23:08.650Z,2.10
2023-07-22T00:25:38.498Z,1.98
2023-07-22T00:28:08.616Z,3.47
2023-07-22T00:30:38.904Z,2.83
2023-07-22T00:33:09.239Z,2.38
2023-07-22T00:35:39.446Z,1.83
2023-07-22T00:38:13.419Z,2.42
2023-07-22T00:40:43.302Z,3.13
2023-07-22T00:43:13.213Z,3.13
2023-07-22T00:45:43.106Z,3.08
2023-07-22T00:48:14.613Z,4.35
2023-07-22T00:50:44.882Z,2.38
2023-07-22T00:53:19.649Z,3.47
2023-07-22T00:55:50.999Z,2.55
2023-07-22T00:58:25.558Z,2.60
2023-07-22T01:00:56.361Z,3.22
2023-07-22T01:03:26.336Z,3.10
2023-07-22T01:05:58.393Z,2.63
2023-07-22T01:08:30.914Z,2.42
2023-07-22T01:11:00.794Z,2.08
2023-07-22T01:13:30.738Z,2.60
2023-07-22T01:16:01.684Z,2.38
2023-07-22T01:18:31.752Z,2.47
2023-07-22T01:21:02.397Z,2.47
2023-07-22T01:23:34.879Z,3.08
2023-07-22T01:26:06.943Z,1.88
2023-07-22T01:28:39.185Z,2.30
2023-07-22T01:31:09.208Z,4.05
2023-07-22T01:33:39.263Z,2.45
2023-07-22T01:36:09.340Z,2.00
2023-07-22T01:38:42.686Z,3.33
2023-07-22T01:41:12.509Z,2.00
2023-07-22T01:43:42.334Z,2.85
2023-07-22T01:46:13.516Z,2.45
2023-07-22T01:48:43.922Z,1.92
2023-07-22T01:51:13.747Z,3.75
2023-07-22T01:53:46.309Z,1.92
2023-07-22T01:56:17.726Z,3.53
2023-07-22T01:58:47.611Z,2.92
2023-07-22T02:01:17.947Z,6.93
2023-07-22T02:03:48.056Z,3.40
2023-07-22T02:06:18.685Z,1.90
2023-07-22T02:08:51.174Z,1.80
2023-07-22T02:11:21.636Z,2.30
2023-07-22T02:13:51.494Z,3.28
2023-07-22T02:16:21.761Z,2.20
2023-07-22T02:18:51.610Z,2.30
2023-07-22T02:21:21.414Z,2.78
2023-07-22T02:23:54.009Z,1.88
2023-07-22T02:26:23.848Z,2.13
2023-07-22T02:28:53.733Z,4.45
2023-07-22T02:31:24.125Z,2.05
2023-07-22T02:33:54.457Z,2.38
2023-07-22T02:36:27.012Z,4.38
2023-07-22T02:38:59.566Z,2.10
2023-07-22T02:41:29.407Z,3.53
2023-07-22T02:43:59.289Z,2.45
2023-07-22T02:46:29.602Z,2.55
2023-07-22T02:49:00.252Z,4.38
2023-07-22T02:51:30.669Z,4.72
2023-07-22T02:54:03.197Z,3.85
2023-07-22T02:56:34.705Z,2.47
2023-07-22T02:59:04.777Z,4.00
2023-07-22T03:01:34.742Z,3.85
2023-07-22T03:04:05.376Z,3.10
2023-07-22T03:06:35.269Z,4.18
2023-07-22T03:09:08.010Z,3.88
2023-07-22T03:11:38.016Z,4.05
2023-07-22T03:14:07.923Z,3.20
2023-07-22T03:16:37.766Z,5.93
2023-07-22T03:19:07.660Z,3.30
2023-07-22T03:21:37.723Z,2.65
2023-07-22T03:24:10.663Z,4.38
2023-07-22T03:26:40.552Z,3.40
2023-07-22T03:29:10.390Z,4.70
2023-07-22T03:31:40.493Z,2.65
2023-07-22T03:34:10.555Z,2.95
2023-07-22T03:36:40.392Z,3.83
2023-07-22T03:39:12.803Z,3.85
2023-07-22T03:41:42.675Z,4.80
2023-07-22T03:44:13.109Z,4.80
2023-07-22T03:46:43.135Z,3.92
2023-07-22T03:49:13.038Z,3.22
2023-07-22T03:51:42.938Z,3.70
2023-07-22T03:54:15.782Z,5.32
2023-07-22T03:56:48.026Z,9.05
2023-07-22T03:59:17.925Z,3.22
2023-07-22T04:01:49.010Z,4.25
2023-07-22T04:04:18.842Z,5.20
2023-07-22T04:06:48.777Z,3.65
2023-07-22T04:09:21.244Z,4.90
2023-07-22T04:11:51.105Z,4.40
2023-07-22T04:14:20.962Z,5.45
2023-07-22T04:16:50.904Z,4.30
2023-07-22T04:19:20.849Z,4.97
2023-07-22T04:21:50.808Z,6.32
2023-07-22T04:24:23.451Z,7.78
2023-07-22T04:26:53.418Z,5.80
2023-07-22T04:29:23.947Z,5.80
2023-07-22T04:31:54.380Z,5.15
2023-07-22T04:34:24.228Z,6.22
2023-07-22T04:36:54.101Z,8.20
2023-07-22T04:39:28.788Z,6.22
2023-07-22T04:41:58.700Z,6.32
2023-07-22T04:44:28.632Z,7.03
2023-07-22T04:46:58.588Z,7.97
2023-07-22T04:49:28.665Z,6.93
2023-07-22T04:51:58.491Z,5.57
2023-07-22T04:54:31.079Z,8.60
2023-07-22T04:57:02.224Z,5.40
2023-07-22T04:59:32.484Z,4.68
2023-07-22T05:02:03.800Z,7.70
2023-07-22T05:04:33.670Z,5.25
2023-07-22T05:07:03.596Z,5.22
2023-07-22T05:09:36.038Z,5.45
2023-07-22T05:12:05.990Z,7.13
2023-07-22T05:14:35.878Z,4.78
2023-07-22T05:17:05.885Z,6.05
2023-07-22T05:19:35.910Z,6.78
2023-07-22T05:22:05.812Z,5.80
2023-07-22T05:24:38.316Z,5.97
2023-07-22T05:27:10.122Z,7.55
2023-07-22T05:29:40.368Z,6.43
2023-07-22T05:32:27.388Z,5.53
2023-07-22T05:35:03.643Z,6.65
2023-07-22T05:37:33.516Z,4.78
2023-07-22T05:40:06.326Z,4.65
2023-07-22T05:42:36.189Z,6.78
2023-07-22T05:45:08.587Z,5.07
2023-07-22T05:47:38.566Z,7.57
2023-07-22T05:50:09.937Z,4.70
2023-07-22T05:52:39.987Z,5.68
2023-07-22T05:55:14.728Z,7.60
2023-07-22T05:57:45.571Z,6.75
2023-07-22T06:00:17.034Z,6.30
2023-07-22T06:02:46.969Z,5.63
2023-07-22T06:05:17.813Z,6.05
2023-07-22T06:07:47.650Z,6.90
2023-07-22T06:10:20.330Z,6.53
2023-07-22T06:12:50.200Z,7.63
2023-07-22T06:15:20.189Z,6.70
2023-07-22T06:17:50.237Z,7.30
2023-07-22T06:20:20.845Z,7.25
2023-07-22T06:22:50.698Z,7.97
2023-07-22T06:25:23.316Z,5.78
2023-07-22T06:27:55.522Z,7.53
2023-07-22T06:30:25.515Z,6.72
2023-07-22T06:32:55.502Z,5.97
2023-07-22T06:35:25.372Z,7.30
2023-07-22T06:37:55.311Z,8.00
2023-07-22T06:40:28.414Z,7.07
2023-07-22T06:42:58.308Z,8.55
2023-07-22T06:45:28.199Z,7.28
2023-07-22T06:47:58.479Z,6.47
2023-07-22T06:50:28.525Z,7.47
2023-07-22T06:52:58.416Z,9.02
2023-07-22T06:55:35.209Z,8.45
2023-07-22T06:58:05.104Z,6.00
2023-07-22T07:00:35.030Z,9.05
2023-07-22T07:03:04.992Z,6.90
2023-07-22T07:05:35.942Z,8.50
2023-07-22T07:08:07.063Z,7.25
2023-07-22T07:10:43.367Z,7.85
2023-07-22T07:13:13.268Z,8.18
2023-07-22T07:15:43.107Z,8.57
2023-07-22T07:18:12.953Z,7.68
2023-07-22T07:20:42.808Z,8.68
2023-07-22T07:23:12.712Z,7.90
2023-07-22T07:25:45.156Z,7.97
2023-07-22T07:28:16.083Z,6.70
2023-07-22T07:30:45.913Z,7.93
2023-07-22T07:33:15.837Z,7.03
2023-07-22T07:35:50.016Z,11.30
2023-07-22T07:38:21.413Z,8.27
2023-07-22T07:40:56.081Z,8.60
2023-07-22T07:43:25.985Z,11.60
2023-07-22T07:46:18.868Z,9.68
2023-07-22T07:48:49.672Z,10.27
2023-07-22T07:51:19.980Z,9.80
2023-07-22T07:53:50.931Z,9.95
2023-07-22T07:56:23.956Z,10.85
2023-07-22T07:58:54.967Z,10.02
2023-07-22T08:01:25.181Z,9.60
2023-07-22T08:03:59.282Z,9.93
2023-07-22T08:06:30.040Z,10.77
2023-07-22T08:09:00.333Z,11.05
2023-07-22T08:11:32.789Z,9.02
2023-07-22T08:14:03.003Z,9.30
2023-07-22T08:16:33.117Z,11.98
2023-07-22T08:19:03.015Z,9.43
2023-07-22T08:21:32.918Z,8.00
2023-07-22T08:24:02.790Z,10.70
2023-07-22T08:26:35.223Z,9.80
2023-07-22T08:29:05.166Z,9.45
2023-07-22T08:31:35.058Z,9.15
2023-07-22T08:34:05.942Z,9.15
2023-07-22T08:36:36.965Z,9.52
2023-07-22T08:39:07.679Z,8.02
2023-07-22T08:41:40.709Z,10.32
2023-07-22T08:44:14.841Z,9.77
2023-07-22T08:46:46.341Z,8.70
2023-07-22T08:49:16.271Z,9.73
2023-07-22T08:51:47.312Z,8.32
2023-07-22T08:54:18.326Z,9.05
2023-07-22T08:56:51.410Z,8.88
2023-07-22T08:59:22.785Z,8.77
2023-07-22T09:01:53.397Z,9.00
2023-07-22T09:04:23.594Z,13.27
2023-07-22T09:06:53.816Z,10.73
2023-07-22T09:09:24.108Z,10.02
2023-07-22T09:11:57.473Z,9.43
2023-07-22T09:14:36.478Z,9.40
2023-07-22T09:17:08.313Z,9.30
2023-07-22T09:19:38.174Z,9.07
2023-07-22T09:22:08.323Z,6.75
2023-07-22T09:24:38.253Z,10.48
2023-07-22T09:27:10.973Z,7.75
2023-07-22T09:29:42.292Z,7.38
2023-07-22T09:32:12.192Z,8.82
2023-07-22T09:34:42.735Z,6.53
2023-07-22T09:37:12.561Z,7.50
2023-07-22T09:39:42.443Z,6.53
2023-07-22T09:42:14.958Z,8.80
2023-07-22T09:44:47.840Z,13.30
2023-07-22T09:47:17.846Z,9.18
2023-07-22T09:49:48.979Z,8.90
2023-07-22T09:52:18.967Z,6.13
2023-07-22T09:54:53.302Z,7.00
2023-07-22T09:57:28.836Z,9.82
2023-07-22T09:59:59.280Z,7.40
2023-07-22T10:02:29.740Z,11.32
2023-07-22T10:05:03.623Z,7.28
2023-07-22T10:07:34.327Z,6.82
2023-07-22T10:10:05.149Z,5.70
2023-07-22T10:12:39.888Z,7.03
2023-07-22T10:15:11.618Z,7.75
2023-07-22T10:17:44.683Z,8.18
2023-07-22T10:20:16.419Z,6.55
2023-07-22T10:22:48.976Z,6.28
2023-07-22T10:26:10.711Z,6.47
2023-07-22T10:28:47.515Z,6.47
2023-07-22T10:31:20.468Z,5.25
2023-07-22T10:33:50.980Z,5.63
2023-07-22T10:36:21.621Z,6.68
2023-07-22T10:39:03.336Z,6.63
2023-07-22T10:41:34.462Z,8.32
2023-07-22T10:44:11.036Z,6.68
2023-07-22T10:46:45.385Z,6.53
2023-07-22T10:49:17.483Z,7.88
2023-07-22T10:51:52.451Z,7.05
2023-07-22T10:54:37.804Z,8.25
2023-07-22T10:57:27.782Z,7.85
2023-07-22T11:00:00.567Z,8.00
2023-07-22T11:02:31.838Z,8.60
2023-07-22T11:05:02.620Z,8.40
2023-07-22T11:07:36.931Z,7.43
2023-07-22T11:10:19.049Z,7.22
2023-07-22T11:12:53.262Z,6.97
2023-07-22T11:15:25.922Z,8.30
2023-07-22T11:17:55.944Z,6.95
2023-07-22T11:20:26.248Z,8.15
2023-07-22T11:22:56.273Z,7.22
2023-07-22T11:25:26.481Z,8.45
2023-07-22T11:27:59.075Z,7.22
2023-07-22T11:30:31.677Z,6.88
2023-07-22T11:33:02.805Z,6.57
2023-07-22T11:35:32.866Z,8.95
2023-07-22T11:38:06.116Z,11.70
2023-07-22T11:40:39.417Z,7.60
2023-07-22T11:43:09.363Z,6.32
2023-07-22T11:45:46.950Z,7.47
2023-07-22T11:48:16.924Z,9.15
2023-07-22T11:50:46.926Z,9.45
2023-07-22T11:53:16.978Z,5.97
2023-07-22T11:55:47.947Z,5.82
2023-07-22T11:58:17.855Z,4.93
2023-07-22T12:01:05.125Z,5.07
2023-07-22T12:03:37.121Z,4.80
2023-07-22T12:06:07.666Z,5.78
2023-07-22T12:08:37.914Z,5.60
2023-07-22T12:11:07.964Z,4.65
2023-07-22T12:13:41.215Z,5.78
2023-07-22T12:16:13.733Z,7.18
2023-07-22T12:18:47.601Z,6.68
2023-07-22T12:21:18.454Z,7.43
2023-07-22T12:23:50.040Z,7.93
2023-07-22T12:26:19.953Z,5.95
2023-07-22T12:28:59.540Z,6.43
2023-07-22T12:31:32.114Z,6.45
2023-07-22T12:34:03.824Z,6.60
2023-07-22T12:36:34.959Z,8.18
2023-07-22T12:39:04.930Z,6.97
2023-07-22T12:41:35.005Z,8.07
2023-07-22T12:44:04.933Z,7.40
2023-07-22T12:46:55.756Z,7.28
2023-07-22T12:49:25.829Z,5.70
2023-07-22T12:51:55.928Z,7.40
2023-07-22T12:54:57.148Z,4.68
2023-07-22T13:00:24.947Z,6.13
2023-07-22T13:03:03.416Z,5.47
2023-07-22T13:05:33.382Z,5.03
2023-07-22T13:08:07.556Z,6.85
2023-07-22T13:10:40.182Z,4.75
2023-07-22T13:13:12.861Z,6.82
2023-07-22T13:15:42.902Z,4.65
2023-07-22T13:18:18.083Z,4.78
2023-07-22T13:20:47.989Z,6.05
2023-07-22T13:23:17.896Z,5.97
2023-07-22T13:25:47.870Z,5.65
2023-07-22T13:28:18.290Z,5.97
2023-07-22T13:30:48.162Z,6.07
2023-07-22T13:33:20.937Z,5.00
2023-07-22T13:35:51.941Z,4.97
2023-07-22T13:38:22.371Z,4.88
2023-07-22T13:40:52.509Z,5.88
2023-07-22T13:43:23.108Z,7.38
2023-07-22T13:45:53.011Z,7.15
2023-07-22T13:48:25.574Z,6.53
2023-07-22T13:50:55.468Z,7.07
2023-07-22T13:53:34.853Z,4.55
2023-07-22T13:56:13.431Z,4.00
2023-07-22T13:58:46.573Z,3.92
2023-07-22T14:01:34.080Z,3.50
2023-07-22T14:04:06.613Z,3.35
2023-07-22T14:06:36.498Z,4.18
2023-07-22T14:09:06.458Z,3.47
2023-07-22T14:11:36.336Z,3.55
2023-07-22T14:14:06.168Z,2.90
2023-07-22T14:16:35.999Z,3.78
2023-07-22T14:19:08.669Z,4.85
2023-07-22T14:21:38.564Z,3.28
2023-07-22T14:24:08.943Z,4.68
2023-07-22T14:26:38.844Z,5.30
2023-07-22T14:32:00.283Z,4.28
2023-07-22T14:34:32.778Z,6.28
2023-07-22T14:37:02.593Z,4.78
2023-07-22T14:39:33.138Z,6.10
2023-07-22T14:42:03.077Z,5.43
2023-07-22T14:44:32.956Z,5.20
2023-07-22T14:47:02.825Z,5.53
2023-07-22T14:49:36.096Z,4.38
2023-07-22T14:52:06.036Z,5.68
2023-07-22T14:54:36.213Z,5.25
2023-07-22T14:57:06.252Z,4.82
2023-07-22T14:59:39.224Z,3.90
2023-07-22T15:02:09.892Z,5.43
2023-07-22T15:04:42.369Z,5.63
2023-07-22T15:07:12.213Z,5.05
2023-07-22T15:09:42.097Z,6.50
2023-07-22T15:12:13.825Z,6.03
2023-07-22T15:14:44.744Z,8.30
2023-07-22T15:17:14.583Z,6.75
2023-07-22T15:19:47.034Z,6.80
2023-07-22T15:22:17.200Z,7.25
2023-07-22T15:24:47.024Z,6.68
2023-07-22T15:27:16.927Z,6.32
2023-07-22T15:29:47.467Z,7.97
2023-07-22T15:32:18.203Z,6.72
2023-07-22T15:34:50.717Z,8.65
2023-07-22T15:37:20.796Z,6.55
2023-07-22T15:39:50.612Z,6.38
2023-07-22T15:42:20.912Z,5.97
2023-07-22T15:44:50.763Z,8.13
2023-07-22T15:47:20.592Z,6.43
2023-07-22T15:49:53.172Z,6.65
2023-07-22T15:52:23.165Z,6.53
2023-07-22T15:54:54.519Z,6.22
2023-07-22T15:57:24.594Z,7.90
2023-07-22T15:59:54.425Z,7.70
2023-07-22T16:02:25.284Z,5.25
2023-07-22T16:04:57.954Z,6.00
2023-07-22T16:07:27.792Z,6.60
2023-07-22T16:09:57.606Z,5.53
2023-07-22T16:12:27.598Z,5.45
2023-07-22T16:14:57.588Z,8.00
2023-07-22T16:17:27.514Z,5.82
2023-07-22T16:19:59.972Z,5.05
2023-07-22T16:22:31.612Z,4.90
2023-07-22T16:25:03.473Z,4.90
2023-07-22T16:27:33.470Z,3.47
2023-07-22T16:30:04.305Z,4.05
2023-07-22T16:32:34.329Z,5.40
2023-07-22T16:35:07.941Z,8.68
2023-07-22T16:37:38.184Z,4.20
2023-07-22T16:40:12.399Z,5.55
2023-07-22T16:42:43.023Z,6.20
2023-07-22T16:45:13.324Z,5.32
2023-07-22T16:47:43.320Z,5.05
2023-07-22T16:50:16.640Z,5.80
2023-07-22T16:52:46.489Z,4.90
2023-07-22T16:55:18.450Z,5.50
2023-07-22T16:57:50.112Z,6.45
2023-07-22T17:00:20.075Z,6.82
2023-07-22T17:02:50.226Z,4.80
2023-07-22T17:05:22.894Z,4.47
2023-07-22T17:07:52.800Z,5.78
2023-07-22T17:10:22.719Z,4.53
2023-07-22T17:12:52.556Z,5.00
2023-07-22T17:15:22.451Z,4.20
2023-07-22T17:17:52.394Z,5.32
2023-07-22T17:20:25.689Z,7.50
2023-07-22T17:22:58.642Z,7.03
2023-07-22T17:25:28.675Z,5.45
2023-07-22T17:27:58.829Z,6.47
2023-07-22T17:30:29.282Z,5.55
2023-07-22T17:32:59.202Z,5.15
2023-07-22T17:35:34.078Z,4.90
2023-07-22T17:38:05.459Z,4.32
2023-07-22T17:40:36.821Z,4.72
2023-07-22T17:43:06.641Z,4.10
2023-07-22T17:45:36.893Z,4.55
2023-07-22T17:48:07.194Z,4.50
2023-07-22T17:50:41.040Z,4.47
2023-07-22T17:53:11.352Z,4.85
2023-07-22T17:55:42.374Z,5.05
2023-07-22T17:58:12.766Z,4.00
2023-07-22T18:00:42.706Z,4.88
2023-07-22T18:03:12.669Z,5.43
2023-07-22T18:05:49.850Z,3.92
2023-07-22T18:08:21.798Z,4.57
2023-07-22T18:10:53.136Z,6.38
2023-07-22T18:13:22.981Z,3.88
2023-07-22T18:15:52.891Z,5.07
2023-07-22T18:18:22.786Z,4.65
2023-07-22T18:20:55.227Z,4.18
2023-07-22T18:23:25.115Z,5.30
2023-07-22T18:25:54.929Z,5.15
2023-07-22T18:28:24.802Z,3.80
2023-07-22T18:30:54.713Z,3.97
2023-07-22T18:33:24.793Z,3.78
2023-07-22T18:35:59.064Z,3.38
2023-07-22T18:38:28.969Z,5.07
2023-07-22T18:41:00.292Z,3.42
2023-07-22T18:43:30.374Z,4.40
2023-07-22T18:46:00.328Z,4.43
2023-07-22T18:48:30.155Z,4.22
2023-07-22T18:51:02.647Z,4.85
2023-07-22T18:53:32.508Z,4.90
2023-07-22T18:56:02.363Z,3.90
2023-07-22T18:58:33.183Z,6.63
2023-07-22T19:01:03.105Z,5.18
2023-07-22T19:03:33.008Z,5.47
2023-07-22T19:06:05.509Z,4.25
2023-07-22T19:08:35.872Z,4.47
2023-07-22T19:11:06.832Z,5.60
2023-07-22T19:13:36.663Z,6.07
2023-07-22T19:16:06.652Z,5.82
2023-07-22T19:18:36.538Z,5.90
2023-07-22T19:21:09.045Z,7.50
2023-07-22T19:23:38.992Z,8.40
2023-07-22T19:26:10.104Z,7.20
2023-07-22T19:28:40.034Z,7.07
2023-07-22T19:31:09.842Z,7.00
2023-07-22T19:33:39.738Z,6.43
2023-07-22T19:36:16.118Z,6.30
2023-07-22T19:38:47.485Z,7.15
2023-07-22T19:41:17.728Z,5.43
2023-07-22T19:43:48.453Z,5.55
2023-07-22T19:46:19.758Z,6.35
2023-07-22T19:48:50.622Z,7.60
2023-07-22T19:51:23.935Z,6.60
2023-07-22T19:53:53.831Z,7.18
2023-07-22T19:56:24.361Z,7.32
2023-07-22T19:58:54.761Z,7.95
2023-07-22T20:01:24.690Z,8.13
2023-07-22T20:03:54.998Z,7.30
2023-07-22T20:06:27.484Z,5.50
2023-07-22T20:08:57.340Z,6.15
2023-07-22T20:11:27.466Z,8.30
2023-07-22T20:13:59.210Z,7.50
2023-07-22T20:16:29.141Z,9.07
2023-07-22T20:18:59.044Z,6.03
2023-07-22T20:21:32.366Z,7.65
2023-07-22T20:24:02.336Z,6.38
2023-07-22T20:26:32.169Z,7.30
2023-07-22T20:29:02.052Z,7.25
2023-07-22T20:31:32.341Z,6.85
2023-07-22T20:34:03.531Z,8.88
2023-07-22T20:36:36.026Z,5.75
2023-07-22T20:39:05.924Z,6.53
2023-07-22T20:41:35.789Z,10.85
2023-07-22T20:44:05.652Z,8.25
2023-07-22T20:46:35.517Z,6.82
2023-07-22T20:49:05.347Z,5.93
2023-07-22T20:51:38.378Z,4.38
2023-07-22T20:54:08.714Z,4.68
2023-07-22T20:56:39.333Z,4.68
2023-07-22T20:59:10.047Z,6.60
2023-07-22T21:01:39.900Z,5.10
2023-07-22T21:04:09.764Z,4.65
2023-07-22T21:06:42.206Z,6.45
2023-07-22T21:09:12.100Z,6.57
2023-07-22T21:11:42.028Z,6.20
2023-07-22T21:14:11.886Z,5.68
2023-07-22T21:16:41.730Z,6.78
2023-07-22T21:19:11.575Z,6.97
2023-07-22T21:21:44.011Z,7.65
2023-07-22T21:24:13.945Z,6.55
2023-07-22T21:26:45.413Z,6.18
2023-07-22T21:29:16.850Z,6.82
2023-07-22T21:31:46.716Z,5.05
2023-07-22T21:34:16.644Z,6.78
2023-07-22T21:36:49.148Z,4.45
2023-07-22T21:39:18.957Z,6.80
2023-07-22T21:41:49.448Z,6.60
2023-07-22T21:44:19.752Z,3.78
2023-07-22T21:46:49.690Z,4.70
2023-07-22T21:49:21.765Z,5.45
2023-07-22T21:51:54.223Z,4.65
2023-07-22T21:54:24.067Z,6.20
2023-07-22T21:56:56.173Z,4.72
2023-07-22T21:59:26.868Z,6.57
2023-07-22T22:01:57.265Z,4.78
2023-07-22T22:04:27.270Z,6.25
2023-07-22T22:06:59.740Z,5.25
2023-07-22T22:09:29.788Z,5.15
2023-07-22T22:11:59.616Z,5.05
2023-07-22T22:14:29.469Z,5.50
2023-07-22T22:16:59.465Z,5.72
2023-07-22T22:19:29.340Z,5.22
2023-07-22T22:22:02.432Z,4.60
2023-07-22T22:24:33.387Z,6.25
2023-07-22T22:27:04.226Z,7.53
2023-07-22T22:29:34.112Z,6.22
2023-07-22T22:32:03.965Z,6.07
2023-07-22T22:34:33.861Z,6.30
2023-07-22T22:37:06.432Z,5.38
2023-07-22T22:39:36.322Z,7.10
2023-07-22T22:42:08.955Z,6.75
2023-07-22T22:44:38.973Z,5.72
2023-07-22T22:47:09.044Z,8.55
2023-07-22T22:49:38.881Z,6.78
2023-07-22T22:52:11.751Z,7.35
2023-07-22T22:54:41.591Z,6.00
2023-07-22T22:57:11.483Z,5.75
2023-07-22T22:59:41.458Z,7.25
2023-07-22T23:02:11.360Z,8.20
2023-07-22T23:04:41.192Z,9.35
2023-07-22T23:07:13.619Z,9.88
2023-07-22T23:09:46.756Z,10.00
2023-07-22T23:12:16.569Z,8.88
2023-07-22T23:14:48.036Z,7.88
2023-07-22T23:17:19.065Z,7.63
2023-07-22T23:19:48.960Z,7.30
2023-07-22T23:22:21.427Z,6.47
2023-07-22T23:24:51.360Z,7.63
2023-07-22T23:27:21.207Z,8.32
2023-07-22T23:29:51.103Z,9.60
2023-07-22T23:32:21.053Z,7.72
2023-07-22T23:34:51.044Z,6.97
2023-07-22T23:37:23.479Z,7.68
2023-07-22T23:39:53.353Z,7.28
2023-07-22T23:42:23.204Z,7.68
2023-07-22T23:44:53.050Z,8.65
2023-07-22T23:47:22.886Z,6.38
2023-07-22T23:49:52.779Z,6.70
2023-07-22T23:52:25.487Z,7.93
2023-07-22T23:54:55.349Z,6.97
2023-07-22T23:57:25.180Z,6.70
2023-07-22T23:59:57.476Z,7.18
